sensor_id;sensor_type;location;lat;lon;timestamp;temperature;humidity
1978;DHT22;989;53.016;8.346;2022-08-04T00:02:02;19.30;99.90
1978;DHT22;989;53.016;8.346;2022-08-04T00:04:44;19.30;99.90
1978;DHT22;989;53.016;8.346;2022-08-04T00:07:21;19.20;99.90
1978;DHT22;989;53.016;8.346;2022-08-04T00:10:03;19.20;99.90
1978;DHT22;989;53.016;8.346;2022-08-04T00:12:33;19.10;99.90
1978;DHT22;989;53.016;8.346;2022-08-04T00:15:02;19.10;99.90
1978;DHT22;989;53.016;8.346;2022-08-04T00:17:31;19.20;99.90
1978;DHT22;989;53.016;8.346;2022-08-04T00:20:03;19.10;99.90
1978;DHT22;989;53.016;8.346;2022-08-04T00:22:30;19.20;99.90
1978;DHT22;989;53.016;8.346;2022-08-04T00:25:01;19.10;99.90
1978;DHT22;989;53.016;8.346;2022-08-04T00:27:28;19.10;99.90
1978;DHT22;989;53.016;8.346;2022-08-04T00:29:56;19.10;99.90
1978;DHT22;989;53.016;8.346;2022-08-04T00:32:23;19.00;99.90
1978;DHT22;989;53.016;8.346;2022-08-04T00:34:50;19.00;99.90
1978;DHT22;989;53.016;8.346;2022-08-04T00:37:20;19.00;99.90
1978;DHT22;989;53.016;8.346;2022-08-04T00:39:46;18.90;99.90
1978;DHT22;989;53.016;8.346;2022-08-04T00:42:29;18.70;99.90
1978;DHT22;989;53.016;8.346;2022-08-04T00:45:28;18.70;99.90
1978;DHT22;989;53.016;8.346;2022-08-04T00:48:36;18.60;99.90
1978;DHT22;989;53.016;8.346;2022-08-04T00:53:54;18.50;99.90
1978;DHT22;989;53.016;8.346;2022-08-04T00:59:47;18.60;99.90
1978;DHT22;989;53.016;8.346;2022-08-04T01:02:27;18.60;99.90
1978;DHT22;989;53.016;8.346;2022-08-04T01:16:16;18.80;99.90
1978;DHT22;989;53.016;8.346;2022-08-04T01:18:56;18.80;99.90
1978;DHT22;989;53.016;8.346;2022-08-04T01:27:25;18.90;99.90
1978;DHT22;989;53.016;8.346;2022-08-04T01:29:55;19.00;99.90
1978;DHT22;989;53.016;8.346;2022-08-04T01:32:36;19.00;99.90
1978;DHT22;989;53.016;8.346;2022-08-04T01:38:03;18.80;99.90
1978;DHT22;989;53.016;8.346;2022-08-04T01:40:31;18.80;99.90
1978;DHT22;989;53.016;8.346;2022-08-04T01:42:59;18.70;99.90
1978;DHT22;989;53.016;8.346;2022-08-04T01:45:26;18.60;99.90
1978;DHT22;989;53.016;8.346;2022-08-04T01:47:55;18.60;99.90
1978;DHT22;989;53.016;8.346;2022-08-04T01:50:23;18.60;99.90
1978;DHT22;989;53.016;8.346;2022-08-04T01:52:52;18.60;99.90
1978;DHT22;989;53.016;8.346;2022-08-04T01:55:18;18.70;99.90
1978;DHT22;989;53.016;8.346;2022-08-04T01:57:52;18.70;99.90
1978;DHT22;989;53.016;8.346;2022-08-04T02:00:20;18.70;99.90
1978;DHT22;989;53.016;8.346;2022-08-04T02:02:48;18.70;99.90
1978;DHT22;989;53.016;8.346;2022-08-04T02:05:16;18.70;99.90
1978;DHT22;989;53.016;8.346;2022-08-04T02:08:36;18.80;99.90
1978;DHT22;989;53.016;8.346;2022-08-04T02:13:21;18.70;99.90
1978;DHT22;989;53.016;8.346;2022-08-04T02:18:56;18.60;99.90
1978;DHT22;989;53.016;8.346;2022-08-04T02:21:25;18.60;99.90
1978;DHT22;989;53.016;8.346;2022-08-04T02:24:00;18.60;99.90
1978;DHT22;989;53.016;8.346;2022-08-04T02:26:28;18.60;99.90
1978;DHT22;989;53.016;8.346;2022-08-04T02:29:16;18.60;99.90
1978;DHT22;989;53.016;8.346;2022-08-04T02:36:47;18.60;99.90
1978;DHT22;989;53.016;8.346;2022-08-04T02:39:18;18.50;99.90
1978;DHT22;989;53.016;8.346;2022-08-04T02:41:46;18.50;99.90
1978;DHT22;989;53.016;8.346;2022-08-04T02:44:19;18.40;99.90
1978;DHT22;989;53.016;8.346;2022-08-04T02:46:47;18.40;99.90
1978;DHT22;989;53.016;8.346;2022-08-04T02:49:16;18.30;99.90
1978;DHT22;989;53.016;8.346;2022-08-04T02:51:49;18.40;99.90
1978;DHT22;989;53.016;8.346;2022-08-04T02:54:18;18.40;99.90
1978;DHT22;989;53.016;8.346;2022-08-04T02:56:45;18.40;99.90
1978;DHT22;989;53.016;8.346;2022-08-04T02:59:12;18.40;99.90
1978;DHT22;989;53.016;8.346;2022-08-04T03:01:40;18.40;99.90
1978;DHT22;989;53.016;8.346;2022-08-04T03:05:02;18.40;99.90
1978;DHT22;989;53.016;8.346;2022-08-04T03:07:23;18.40;99.90
1978;DHT22;989;53.016;8.346;2022-08-04T03:21:32;18.80;99.90
1978;DHT22;989;53.016;8.346;2022-08-04T03:27:17;19.00;99.90
1978;DHT22;989;53.016;8.346;2022-08-04T03:30:22;19.00;99.90
1978;DHT22;989;53.016;8.346;2022-08-04T03:47:27;19.20;99.90
1978;DHT22;989;53.016;8.346;2022-08-04T03:53:52;19.20;99.90
1978;DHT22;989;53.016;8.346;2022-08-04T04:04:31;19.10;99.90
1978;DHT22;989;53.016;8.346;2022-08-04T04:07:10;19.10;99.90
1978;DHT22;989;53.016;8.346;2022-08-04T04:18:15;19.20;99.90
1978;DHT22;989;53.016;8.346;2022-08-04T04:23:38;19.50;99.90
1978;DHT22;989;53.016;8.346;2022-08-04T04:40:42;20.20;93.90
1978;DHT22;989;53.016;8.346;2022-08-04T04:49:36;20.70;86.20
1978;DHT22;989;53.016;8.346;2022-08-04T04:52:25;20.70;80.80
1978;DHT22;989;53.016;8.346;2022-08-04T04:55:03;20.70;81.90
1978;DHT22;989;53.016;8.346;2022-08-04T04:57:35;20.80;79.60
1978;DHT22;989;53.016;8.346;2022-08-04T05:00:05;20.90;77.40
1978;DHT22;989;53.016;8.346;2022-08-04T05:08:48;21.30;70.70
1978;DHT22;989;53.016;8.346;2022-08-04T05:11:27;21.50;62.60
1978;DHT22;989;53.016;8.346;2022-08-04T05:14:02;21.60;58.20
1978;DHT22;989;53.016;8.346;2022-08-04T05:16:37;21.60;57.20
1978;DHT22;989;53.016;8.346;2022-08-04T05:19:30;21.60;59.10
1978;DHT22;989;53.016;8.346;2022-08-04T05:24:46;21.60;56.80
1978;DHT22;989;53.016;8.346;2022-08-04T05:27:22;21.50;59.10
1978;DHT22;989;53.016;8.346;2022-08-04T05:29:54;21.50;59.30
1978;DHT22;989;53.016;8.346;2022-08-04T05:32:25;21.50;60.20
1978;DHT22;989;53.016;8.346;2022-08-04T05:34:57;21.60;59.30
1978;DHT22;989;53.016;8.346;2022-08-04T05:37:25;21.70;57.70
1978;DHT22;989;53.016;8.346;2022-08-04T05:39:59;22.00;55.00
1978;DHT22;989;53.016;8.346;2022-08-04T05:42:26;22.20;51.60
1978;DHT22;989;53.016;8.346;2022-08-04T05:44:54;22.60;48.60
1978;DHT22;989;53.016;8.346;2022-08-04T05:47:20;23.10;40.10
1978;DHT22;989;53.016;8.346;2022-08-04T05:49:47;23.40;35.40
1978;DHT22;989;53.016;8.346;2022-08-04T05:52:14;23.80;26.50
1978;DHT22;989;53.016;8.346;2022-08-04T05:54:41;23.90;23.60
1978;DHT22;989;53.016;8.346;2022-08-04T05:57:08;24.00;21.10
1978;DHT22;989;53.016;8.346;2022-08-04T05:59:37;23.80;23.90
1978;DHT22;989;53.016;8.346;2022-08-04T06:02:04;23.80;23.20
1978;DHT22;989;53.016;8.346;2022-08-04T06:04:34;23.90;25.30
1978;DHT22;989;53.016;8.346;2022-08-04T06:07:00;24.30;22.80
1978;DHT22;989;53.016;8.346;2022-08-04T06:09:26;24.60;19.20
1978;DHT22;989;53.016;8.346;2022-08-04T06:11:52;24.90;15.10
1978;DHT22;989;53.016;8.346;2022-08-04T06:14:21;25.20;7.80
1978;DHT22;989;53.016;8.346;2022-08-04T06:16:49;25.20;3.90
1978;DHT22;989;53.016;8.346;2022-08-04T06:19:17;25.00;8.30
1978;DHT22;989;53.016;8.346;2022-08-04T06:21:47;25.10;8.50
1978;DHT22;989;53.016;8.346;2022-08-04T06:24:17;24.90;8.80
1978;DHT22;989;53.016;8.346;2022-08-04T06:26:46;24.90;9.00
1978;DHT22;989;53.016;8.346;2022-08-04T06:29:16;25.00;4.70
1978;DHT22;989;53.016;8.346;2022-08-04T06:31:52;25.00;5.70
1978;DHT22;989;53.016;8.346;2022-08-04T06:34:29;25.10;3.20
1978;DHT22;989;53.016;8.346;2022-08-04T06:36:57;25.00;3.50
1978;DHT22;989;53.016;8.346;2022-08-04T06:39:24;25.10;2.50
1978;DHT22;989;53.016;8.346;2022-08-04T06:41:53;25.20;2.40
1978;DHT22;989;53.016;8.346;2022-08-04T06:44:20;25.40;1.00
1978;DHT22;989;53.016;8.346;2022-08-04T06:46:47;25.70;1.00
1978;DHT22;989;53.016;8.346;2022-08-04T06:49:13;25.80;1.00
1978;DHT22;989;53.016;8.346;2022-08-04T06:51:40;25.90;1.00
1978;DHT22;989;53.016;8.346;2022-08-04T06:54:07;26.50;1.00
1978;DHT22;989;53.016;8.346;2022-08-04T06:56:34;26.60;1.00
1978;DHT22;989;53.016;8.346;2022-08-04T06:59:01;27.10;1.00
1978;DHT22;989;53.016;8.346;2022-08-04T07:01:29;27.40;1.00
1978;DHT22;989;53.016;8.346;2022-08-04T07:03:55;27.90;1.00
1978;DHT22;989;53.016;8.346;2022-08-04T07:06:22;28.20;1.00
1978;DHT22;989;53.016;8.346;2022-08-04T07:08:51;28.40;1.00
1978;DHT22;989;53.016;8.346;2022-08-04T07:11:18;28.10;1.00
1978;DHT22;989;53.016;8.346;2022-08-04T07:13:45;28.00;1.00
1978;DHT22;989;53.016;8.346;2022-08-04T07:16:14;27.80;1.00
1978;DHT22;989;53.016;8.346;2022-08-04T07:18:42;28.30;1.00
1978;DHT22;989;53.016;8.346;2022-08-04T07:21:08;28.80;1.00
1978;DHT22;989;53.016;8.346;2022-08-04T07:23:35;29.50;1.00
1978;DHT22;989;53.016;8.346;2022-08-04T07:26:01;29.50;1.00
1978;DHT22;989;53.016;8.346;2022-08-04T07:28:29;29.10;1.00
1978;DHT22;989;53.016;8.346;2022-08-04T07:30:56;29.20;1.00
1978;DHT22;989;53.016;8.346;2022-08-04T07:33:23;29.00;1.00
1978;DHT22;989;53.016;8.346;2022-08-04T07:35:52;28.90;1.00
1978;DHT22;989;53.016;8.346;2022-08-04T07:38:18;29.10;1.00
1978;DHT22;989;53.016;8.346;2022-08-04T07:40:45;29.10;1.00
1978;DHT22;989;53.016;8.346;2022-08-04T07:43:13;29.00;1.00
1978;DHT22;989;53.016;8.346;2022-08-04T07:45:40;29.40;1.00
1978;DHT22;989;53.016;8.346;2022-08-04T07:48:09;30.30;1.00
1978;DHT22;989;53.016;8.346;2022-08-04T07:50:36;30.80;1.00
1978;DHT22;989;53.016;8.346;2022-08-04T07:53:03;30.90;1.00
1978;DHT22;989;53.016;8.346;2022-08-04T07:55:30;31.20;1.00
1978;DHT22;989;53.016;8.346;2022-08-04T07:57:56;31.10;1.00
1978;DHT22;989;53.016;8.346;2022-08-04T08:00:22;31.30;1.00
1978;DHT22;989;53.016;8.346;2022-08-04T08:02:49;31.80;1.00
1978;DHT22;989;53.016;8.346;2022-08-04T08:05:17;32.10;1.00
1978;DHT22;989;53.016;8.346;2022-08-04T08:07:45;32.30;1.00
1978;DHT22;989;53.016;8.346;2022-08-04T08:10:12;31.90;1.00
1978;DHT22;989;53.016;8.346;2022-08-04T08:12:39;31.50;1.00
1978;DHT22;989;53.016;8.346;2022-08-04T08:15:07;31.10;1.00
1978;DHT22;989;53.016;8.346;2022-08-04T08:17:34;31.10;1.00
1978;DHT22;989;53.016;8.346;2022-08-04T08:20:00;31.70;1.00
1978;DHT22;989;53.016;8.346;2022-08-04T08:22:27;32.50;1.00
1978;DHT22;989;53.016;8.346;2022-08-04T08:24:54;32.60;1.00
1978;DHT22;989;53.016;8.346;2022-08-04T08:27:20;32.60;1.00
1978;DHT22;989;53.016;8.346;2022-08-04T08:29:46;32.80;1.00
1978;DHT22;989;53.016;8.346;2022-08-04T08:32:13;32.50;1.00
1978;DHT22;989;53.016;8.346;2022-08-04T08:34:40;32.60;1.00
1978;DHT22;989;53.016;8.346;2022-08-04T08:37:25;33.20;1.00
1978;DHT22;989;53.016;8.346;2022-08-04T08:56:20;34.90;1.00
1978;DHT22;989;53.016;8.346;2022-08-04T09:02:14;35.70;1.00
1978;DHT22;989;53.016;8.346;2022-08-04T09:04:50;35.60;1.00
1978;DHT22;989;53.016;8.346;2022-08-04T09:07:40;35.10;1.00
1978;DHT22;989;53.016;8.346;2022-08-04T09:13:01;35.50;1.00
1978;DHT22;989;53.016;8.346;2022-08-04T09:15:48;34.70;1.00
1978;DHT22;989;53.016;8.346;2022-08-04T09:18:26;34.30;1.00
1978;DHT22;989;53.016;8.346;2022-08-04T09:23:44;33.30;1.00
1978;DHT22;989;53.016;8.346;2022-08-04T09:29:18;33.60;1.00
1978;DHT22;989;53.016;8.346;2022-08-04T09:31:48;34.60;1.00
1978;DHT22;989;53.016;8.346;2022-08-04T09:37:45;35.30;1.00
1978;DHT22;989;53.016;8.346;2022-08-04T09:43:26;35.30;1.00
1978;DHT22;989;53.016;8.346;2022-08-04T09:46:12;35.80;1.00
1978;DHT22;989;53.016;8.346;2022-08-04T09:48:51;36.20;1.00
1978;DHT22;989;53.016;8.346;2022-08-04T09:51:35;36.00;1.00
1978;DHT22;989;53.016;8.346;2022-08-04T10:02:13;36.50;1.00
1978;DHT22;989;53.016;8.346;2022-08-04T10:04:42;36.40;1.00
1978;DHT22;989;53.016;8.346;2022-08-04T10:10:37;36.30;1.00
1978;DHT22;989;53.016;8.346;2022-08-04T10:19:52;36.70;1.00
1978;DHT22;989;53.016;8.346;2022-08-04T10:22:38;36.40;1.00
1978;DHT22;989;53.016;8.346;2022-08-04T10:25:29;36.70;1.00
1978;DHT22;989;53.016;8.346;2022-08-04T10:28:04;37.10;1.00
1978;DHT22;989;53.016;8.346;2022-08-04T10:30:32;36.70;1.00
1978;DHT22;989;53.016;8.346;2022-08-04T10:35:37;35.90;1.00
1978;DHT22;989;53.016;8.346;2022-08-04T10:40:45;35.10;1.00
1978;DHT22;989;53.016;8.346;2022-08-04T10:46:22;35.50;1.00
1978;DHT22;989;53.016;8.346;2022-08-04T10:49:06;36.60;1.00
1978;DHT22;989;53.016;8.346;2022-08-04T10:51:50;36.80;1.00
1978;DHT22;989;53.016;8.346;2022-08-04T10:54:28;37.20;1.00
1978;DHT22;989;53.016;8.346;2022-08-04T10:57:03;37.80;1.00
1978;DHT22;989;53.016;8.346;2022-08-04T10:59:54;38.00;1.00
1978;DHT22;989;53.016;8.346;2022-08-04T11:02:42;37.80;1.00
1978;DHT22;989;53.016;8.346;2022-08-04T11:07:50;38.10;1.00
1978;DHT22;989;53.016;8.346;2022-08-04T11:10:21;37.70;1.00
1978;DHT22;989;53.016;8.346;2022-08-04T11:12:53;37.80;1.00
1978;DHT22;989;53.016;8.346;2022-08-04T11:15:24;37.90;1.00
1978;DHT22;989;53.016;8.346;2022-08-04T11:18:04;36.40;1.00
1978;DHT22;989;53.016;8.346;2022-08-04T11:20:37;37.30;1.00
1978;DHT22;989;53.016;8.346;2022-08-04T11:23:09;37.10;1.00
1978;DHT22;989;53.016;8.346;2022-08-04T11:25:59;37.20;1.00
1978;DHT22;989;53.016;8.346;2022-08-04T11:31:04;35.40;1.00
1978;DHT22;989;53.016;8.346;2022-08-04T11:33:45;36.00;1.00
1978;DHT22;989;53.016;8.346;2022-08-04T11:36:38;36.40;1.00
1978;DHT22;989;53.016;8.346;2022-08-04T11:39:15;37.00;1.00
1978;DHT22;989;53.016;8.346;2022-08-04T11:44:40;38.70;1.00
1978;DHT22;989;53.016;8.346;2022-08-04T11:47:27;37.90;1.00
1978;DHT22;989;53.016;8.346;2022-08-04T11:50:37;37.90;1.00
1978;DHT22;989;53.016;8.346;2022-08-04T11:53:04;36.80;1.00
1978;DHT22;989;53.016;8.346;2022-08-04T11:55:32;36.80;1.00
1978;DHT22;989;53.016;8.346;2022-08-04T11:57:59;36.10;1.00
1978;DHT22;989;53.016;8.346;2022-08-04T12:00:27;35.30;1.00
1978;DHT22;989;53.016;8.346;2022-08-04T12:03:06;35.60;1.00
1978;DHT22;989;53.016;8.346;2022-08-04T12:05:53;36.60;1.00
1978;DHT22;989;53.016;8.346;2022-08-04T12:08:35;36.20;1.00
1978;DHT22;989;53.016;8.346;2022-08-04T12:11:37;35.30;1.00
1978;DHT22;989;53.016;8.346;2022-08-04T12:14:20;34.60;1.00
1978;DHT22;989;53.016;8.346;2022-08-04T12:16:59;35.30;1.00
1978;DHT22;989;53.016;8.346;2022-08-04T12:22:05;34.10;1.00
1978;DHT22;989;53.016;8.346;2022-08-04T12:24:38;33.50;1.00
1978;DHT22;989;53.016;8.346;2022-08-04T12:29:39;33.00;1.00
1978;DHT22;989;53.016;8.346;2022-08-04T12:32:25;32.70;1.00
1978;DHT22;989;53.016;8.346;2022-08-04T12:35:02;33.20;1.00
1978;DHT22;989;53.016;8.346;2022-08-04T12:37:57;33.80;1.00
1978;DHT22;989;53.016;8.346;2022-08-04T12:40:37;34.30;1.00
1978;DHT22;989;53.016;8.346;2022-08-04T12:45:59;33.10;1.00
1978;DHT22;989;53.016;8.346;2022-08-04T12:48:27;32.40;1.00
1978;DHT22;989;53.016;8.346;2022-08-04T12:50:56;32.40;1.00
1978;DHT22;989;53.016;8.346;2022-08-04T12:53:33;32.60;1.00
1978;DHT22;989;53.016;8.346;2022-08-04T12:56:03;32.70;1.00
1978;DHT22;989;53.016;8.346;2022-08-04T12:58:35;32.00;1.00
1978;DHT22;989;53.016;8.346;2022-08-04T13:01:04;32.20;1.00
1978;DHT22;989;53.016;8.346;2022-08-04T13:03:46;33.50;1.00
1978;DHT22;989;53.016;8.346;2022-08-04T13:06:14;34.40;1.00
1978;DHT22;989;53.016;8.346;2022-08-04T13:08:44;35.20;1.00
1978;DHT22;989;53.016;8.346;2022-08-04T13:11:11;35.10;1.00
1978;DHT22;989;53.016;8.346;2022-08-04T13:13:38;35.20;1.00
1978;DHT22;989;53.016;8.346;2022-08-04T13:16:09;35.10;1.00
1978;DHT22;989;53.016;8.346;2022-08-04T13:18:44;33.80;1.00
1978;DHT22;989;53.016;8.346;2022-08-04T13:21:21;33.30;1.00
1978;DHT22;989;53.016;8.346;2022-08-04T13:23:56;32.90;1.00
1978;DHT22;989;53.016;8.346;2022-08-04T13:26:23;32.90;1.00
1978;DHT22;989;53.016;8.346;2022-08-04T13:28:52;33.00;1.00
1978;DHT22;989;53.016;8.346;2022-08-04T13:31:21;32.80;1.00
1978;DHT22;989;53.016;8.346;2022-08-04T13:33:51;32.60;1.00
1978;DHT22;989;53.016;8.346;2022-08-04T13:36:18;32.60;1.00
1978;DHT22;989;53.016;8.346;2022-08-04T13:38:52;32.30;1.00
1978;DHT22;989;53.016;8.346;2022-08-04T13:41:21;31.80;1.00
1978;DHT22;989;53.016;8.346;2022-08-04T13:43:49;31.20;1.00
1978;DHT22;989;53.016;8.346;2022-08-04T13:46:20;30.90;1.00
1978;DHT22;989;53.016;8.346;2022-08-04T13:48:47;30.40;1.00
1978;DHT22;989;53.016;8.346;2022-08-04T13:51:17;30.20;1.00
1978;DHT22;989;53.016;8.346;2022-08-04T13:53:43;30.00;1.00
1978;DHT22;989;53.016;8.346;2022-08-04T13:56:11;29.80;1.00
1978;DHT22;989;53.016;8.346;2022-08-04T13:58:43;29.30;1.00
1978;DHT22;989;53.016;8.346;2022-08-04T14:01:21;27.90;1.00
1978;DHT22;989;53.016;8.346;2022-08-04T14:04:24;25.20;14.30
1978;DHT22;989;53.016;8.346;2022-08-04T14:09:27;20.70;99.90
1978;DHT22;989;53.016;8.346;2022-08-04T14:11:55;20.40;99.90
1978;DHT22;989;53.016;8.346;2022-08-04T14:14:30;20.40;99.90
1978;DHT22;989;53.016;8.346;2022-08-04T14:17:07;20.40;99.90
1978;DHT22;989;53.016;8.346;2022-08-04T14:27:39;22.40;99.90
1978;DHT22;989;53.016;8.346;2022-08-04T14:30:19;22.90;99.90
1978;DHT22;989;53.016;8.346;2022-08-04T14:33:03;23.10;93.00
1978;DHT22;989;53.016;8.346;2022-08-04T14:35:31;23.20;88.30
1978;DHT22;989;53.016;8.346;2022-08-04T14:38:00;23.30;92.80
1978;DHT22;989;53.016;8.346;2022-08-04T14:40:29;23.40;90.70
1978;DHT22;989;53.016;8.346;2022-08-04T14:42:55;23.40;94.00
1978;DHT22;989;53.016;8.346;2022-08-04T14:45:33;23.40;91.80
1978;DHT22;989;53.016;8.346;2022-08-04T14:48:02;23.50;94.10
1978;DHT22;989;53.016;8.346;2022-08-04T14:50:44;23.50;93.60
1978;DHT22;989;53.016;8.346;2022-08-04T14:53:22;23.50;93.30
1978;DHT22;989;53.016;8.346;2022-08-04T14:55:53;23.50;93.90
1978;DHT22;989;53.016;8.346;2022-08-04T15:00:52;23.50;97.70
1978;DHT22;989;53.016;8.346;2022-08-04T15:03:20;23.50;98.90
1978;DHT22;989;53.016;8.346;2022-08-04T15:05:48;23.60;97.70
1978;DHT22;989;53.016;8.346;2022-08-04T15:08:15;23.60;97.90
1978;DHT22;989;53.016;8.346;2022-08-04T15:10:42;23.70;95.40
1978;DHT22;989;53.016;8.346;2022-08-04T15:13:09;23.80;95.10
1978;DHT22;989;53.016;8.346;2022-08-04T15:15:41;23.80;92.00
1978;DHT22;989;53.016;8.346;2022-08-04T15:18:08;24.10;90.40
1978;DHT22;989;53.016;8.346;2022-08-04T15:20:36;24.40;86.30
1978;DHT22;989;53.016;8.346;2022-08-04T15:23:03;25.20;74.80
1978;DHT22;989;53.016;8.346;2022-08-04T15:25:40;26.10;59.80
1978;DHT22;989;53.016;8.346;2022-08-04T15:28:14;27.80;27.10
1978;DHT22;989;53.016;8.346;2022-08-04T15:30:43;29.20;5.60
1978;DHT22;989;53.016;8.346;2022-08-04T15:33:10;30.30;1.00
1978;DHT22;989;53.016;8.346;2022-08-04T15:35:37;28.90;1.00
1978;DHT22;989;53.016;8.346;2022-08-04T15:38:10;28.90;1.00
1978;DHT22;989;53.016;8.346;2022-08-04T15:46:12;26.80;6.80
1978;DHT22;989;53.016;8.346;2022-08-04T15:48:39;26.20;23.40
1978;DHT22;989;53.016;8.346;2022-08-04T15:51:07;25.90;29.10
1978;DHT22;989;53.016;8.346;2022-08-04T15:58:53;25.10;43.20
1978;DHT22;989;53.016;8.346;2022-08-04T16:01:20;25.20;44.20
1978;DHT22;989;53.016;8.346;2022-08-04T16:03:50;25.10;40.50
1978;DHT22;989;53.016;8.346;2022-08-04T16:14:15;26.20;14.30
1978;DHT22;989;53.016;8.346;2022-08-04T16:21:52;26.90;1.00
1978;DHT22;989;53.016;8.346;2022-08-04T16:24:28;27.80;1.00
1978;DHT22;989;53.016;8.346;2022-08-04T16:26:57;29.30;1.00
1978;DHT22;989;53.016;8.346;2022-08-04T16:34:33;29.60;1.00
1978;DHT22;989;53.016;8.346;2022-08-04T16:37:01;28.00;1.00
1978;DHT22;989;53.016;8.346;2022-08-04T16:39:28;26.90;1.00
1978;DHT22;989;53.016;8.346;2022-08-04T16:41:55;26.50;1.00
1978;DHT22;989;53.016;8.346;2022-08-04T16:44:35;26.10;1.00
1978;DHT22;989;53.016;8.346;2022-08-04T16:47:04;26.40;1.00
1978;DHT22;989;53.016;8.346;2022-08-04T16:49:32;26.70;1.00
1978;DHT22;989;53.016;8.346;2022-08-04T16:52:05;26.60;1.00
1978;DHT22;989;53.016;8.346;2022-08-04T16:54:33;26.10;1.00
1978;DHT22;989;53.016;8.346;2022-08-04T16:57:00;25.80;1.00
1978;DHT22;989;53.016;8.346;2022-08-04T16:59:26;25.60;1.00
1978;DHT22;989;53.016;8.346;2022-08-04T17:01:53;25.70;1.00
1978;DHT22;989;53.016;8.346;2022-08-04T17:04:33;25.90;1.00
1978;DHT22;989;53.016;8.346;2022-08-04T17:07:01;25.80;1.00
1978;DHT22;989;53.016;8.346;2022-08-04T17:09:28;25.50;1.00
1978;DHT22;989;53.016;8.346;2022-08-04T17:11:56;25.80;1.00
1978;DHT22;989;53.016;8.346;2022-08-04T17:14:29;26.60;1.00
1978;DHT22;989;53.016;8.346;2022-08-04T17:16:58;27.40;1.00
1978;DHT22;989;53.016;8.346;2022-08-04T17:19:25;28.20;1.00
1978;DHT22;989;53.016;8.346;2022-08-04T17:21:52;29.30;1.00
1978;DHT22;989;53.016;8.346;2022-08-04T17:24:18;30.50;1.00
1978;DHT22;989;53.016;8.346;2022-08-04T17:26:46;30.80;1.00
1978;DHT22;989;53.016;8.346;2022-08-04T17:29:12;29.90;1.00
1978;DHT22;989;53.016;8.346;2022-08-04T17:31:38;28.70;1.00
1978;DHT22;989;53.016;8.346;2022-08-04T17:34:10;28.60;1.00
1978;DHT22;989;53.016;8.346;2022-08-04T17:36:37;28.90;1.00
1978;DHT22;989;53.016;8.346;2022-08-04T17:39:18;29.00;1.00
1978;DHT22;989;53.016;8.346;2022-08-04T17:41:46;29.40;1.00
1978;DHT22;989;53.016;8.346;2022-08-04T17:44:12;30.00;1.00
1978;DHT22;989;53.016;8.346;2022-08-04T17:46:40;30.50;1.00
1978;DHT22;989;53.016;8.346;2022-08-04T17:49:10;30.20;1.00
1978;DHT22;989;53.016;8.346;2022-08-04T17:54:20;28.50;1.00
1978;DHT22;989;53.016;8.346;2022-08-04T17:56:48;28.40;1.00
1978;DHT22;989;53.016;8.346;2022-08-04T17:59:20;27.80;1.00
1978;DHT22;989;53.016;8.346;2022-08-04T18:12:25;25.40;1.00
1978;DHT22;989;53.016;8.346;2022-08-04T18:14:53;24.70;1.00
1978;DHT22;989;53.016;8.346;2022-08-04T18:17:34;24.20;1.00
1978;DHT22;989;53.016;8.346;2022-08-04T18:20:06;23.90;1.00
1978;DHT22;989;53.016;8.346;2022-08-04T18:22:34;23.80;1.50
1978;DHT22;989;53.016;8.346;2022-08-04T18:25:00;23.60;3.70
1978;DHT22;989;53.016;8.346;2022-08-04T18:27:29;23.40;9.00
1978;DHT22;989;53.016;8.346;2022-08-04T18:29:56;23.30;12.90
1978;DHT22;989;53.016;8.346;2022-08-04T18:32:22;23.20;17.30
1978;DHT22;989;53.016;8.346;2022-08-04T18:34:52;23.10;19.30
1978;DHT22;989;53.016;8.346;2022-08-04T18:37:18;23.00;24.20
1978;DHT22;989;53.016;8.346;2022-08-04T18:39:44;22.90;29.50
1978;DHT22;989;53.016;8.346;2022-08-04T18:42:11;22.60;38.10
1978;DHT22;989;53.016;8.346;2022-08-04T18:44:37;22.50;43.80
1978;DHT22;989;53.016;8.346;2022-08-04T18:47:04;22.40;48.00
1978;DHT22;989;53.016;8.346;2022-08-04T18:49:30;22.20;54.40
1978;DHT22;989;53.016;8.346;2022-08-04T18:51:57;22.00;59.70
1978;DHT22;989;53.016;8.346;2022-08-04T18:54:24;21.80;65.10
1978;DHT22;989;53.016;8.346;2022-08-04T18:56:51;21.70;68.60
1978;DHT22;989;53.016;8.346;2022-08-04T18:59:18;21.60;71.30
1978;DHT22;989;53.016;8.346;2022-08-04T19:01:44;21.50;74.20
1978;DHT22;989;53.016;8.346;2022-08-04T19:04:10;21.50;74.50
1978;DHT22;989;53.016;8.346;2022-08-04T19:06:37;21.30;76.70
1978;DHT22;989;53.016;8.346;2022-08-04T19:09:04;21.20;78.40
1978;DHT22;989;53.016;8.346;2022-08-04T19:11:31;21.10;80.90
1978;DHT22;989;53.016;8.346;2022-08-04T19:14:01;21.10;83.90
1978;DHT22;989;53.016;8.346;2022-08-04T19:16:29;21.00;84.70
1978;DHT22;989;53.016;8.346;2022-08-04T19:19:00;20.90;86.30
1978;DHT22;989;53.016;8.346;2022-08-04T19:21:27;20.80;88.10
1978;DHT22;989;53.016;8.346;2022-08-04T19:23:53;20.80;89.30
1978;DHT22;989;53.016;8.346;2022-08-04T19:26:20;20.70;90.00
1978;DHT22;989;53.016;8.346;2022-08-04T19:28:47;20.60;91.10
1978;DHT22;989;53.016;8.346;2022-08-04T19:31:13;20.50;90.70
1978;DHT22;989;53.016;8.346;2022-08-04T19:33:40;20.50;91.00
1978;DHT22;989;53.016;8.346;2022-08-04T19:36:07;20.30;91.70
1978;DHT22;989;53.016;8.346;2022-08-04T19:38:34;20.30;92.40
1978;DHT22;989;53.016;8.346;2022-08-04T19:41:00;20.20;91.90
1978;DHT22;989;53.016;8.346;2022-08-04T19:43:27;20.20;92.60
1978;DHT22;989;53.016;8.346;2022-08-04T19:45:53;20.10;92.90
1978;DHT22;989;53.016;8.346;2022-08-04T19:48:19;20.00;91.80
1978;DHT22;989;53.016;8.346;2022-08-04T19:50:45;20.00;90.70
1978;DHT22;989;53.016;8.346;2022-08-04T19:53:12;19.90;88.10
1978;DHT22;989;53.016;8.346;2022-08-04T19:55:39;19.90;88.10
1978;DHT22;989;53.016;8.346;2022-08-04T19:58:06;19.90;86.10
1978;DHT22;989;53.016;8.346;2022-08-04T20:00:33;19.80;81.60
1978;DHT22;989;53.016;8.346;2022-08-04T20:02:59;19.80;81.20
1978;DHT22;989;53.016;8.346;2022-08-04T20:05:26;19.70;81.30
1978;DHT22;989;53.016;8.346;2022-08-04T20:07:52;19.70;80.60
1978;DHT22;989;53.016;8.346;2022-08-04T20:10:18;19.60;79.70
1978;DHT22;989;53.016;8.346;2022-08-04T20:12:44;19.60;80.40
1978;DHT22;989;53.016;8.346;2022-08-04T20:15:10;19.50;83.00
1978;DHT22;989;53.016;8.346;2022-08-04T20:17:36;19.40;85.20
1978;DHT22;989;53.016;8.346;2022-08-04T20:20:03;19.30;86.90
1978;DHT22;989;53.016;8.346;2022-08-04T20:22:30;19.20;90.20
1978;DHT22;989;53.016;8.346;2022-08-04T20:24:57;19.10;92.00
1978;DHT22;989;53.016;8.346;2022-08-04T20:27:23;19.10;93.50
1978;DHT22;989;53.016;8.346;2022-08-04T20:29:51;19.00;95.10
1978;DHT22;989;53.016;8.346;2022-08-04T20:32:25;18.90;97.20
1978;DHT22;989;53.016;8.346;2022-08-04T20:34:53;18.90;98.80
1978;DHT22;989;53.016;8.346;2022-08-04T20:37:21;18.80;99.90
1978;DHT22;989;53.016;8.346;2022-08-04T20:39:56;18.70;99.90
1978;DHT22;989;53.016;8.346;2022-08-04T20:42:24;18.60;99.90
1978;DHT22;989;53.016;8.346;2022-08-04T20:44:50;18.60;99.90
1978;DHT22;989;53.016;8.346;2022-08-04T20:47:17;18.50;99.90
1978;DHT22;989;53.016;8.346;2022-08-04T20:49:43;18.40;99.90
1978;DHT22;989;53.016;8.346;2022-08-04T20:52:09;18.30;99.90
1978;DHT22;989;53.016;8.346;2022-08-04T20:54:39;18.30;99.90
1978;DHT22;989;53.016;8.346;2022-08-04T20:57:07;18.20;99.90
1978;DHT22;989;53.016;8.346;2022-08-04T20:59:33;18.20;99.90
1978;DHT22;989;53.016;8.346;2022-08-04T21:02:04;18.20;99.90
1978;DHT22;989;53.016;8.346;2022-08-04T21:04:30;18.10;99.90
1978;DHT22;989;53.016;8.346;2022-08-04T21:07:01;18.10;99.90